Aérodrome :
LOGIN :

S'inscrire | Disclaimer

   EN    FR    IT 

 










Légende :    VFR   VFR Marginal   IFR   IFR Intensif   IFR Très Intensif
Visi : 
Plafond : 
>= 8 km
>= 3000ft
5 à 8 km
1000 à 3000 ft
1500m à 5 km
500 à 1000 ft
800 à 1500m
200 à 500 ft
< 800m
< 200 ft
Symboles :   Orages  Brouillard  Fortes neiges  Fortes précipitations  Vent > 20 kt
SIGMETs :   Divers  Orages  Givrage  Turbulence  Onde Orograph.  Cendres Volcan.






- Altitude de l'aérodrome : 288 ft
- Code IATA : BZZ


EGVN - RAF Brize Norton

DERNIER METAR :
  • 281020Z 05018KT 9999 SCT022 BKN029 08/03 Q1030 BECMG FEW025 SCT030

METARs EXPIRÉS :
  • 280950Z 05017KT 9999 BKN022 08/03 Q1029 BECMG SCT025 RMK WHT BECMG BLU
  • 280920Z 05022KT 9999 BKN022 09/03 Q1029 NOSIG RMK WHT WHT
  • 280850Z 05019KT 9999 SCT020 07/03 Q1029 NOSIG RMK WHT WHT
  • 280820Z 04018KT 9000 HZ SCT017 06/02 Q1029 NOSIG RMK WHT WHT
  • 280750Z 04017KT 8000 HZ FEW016 06/03 Q1028 TEMPO SCT018 RMK BLU TEMPO WHT

TAF AMD TAF EGVN
Valide du 28 à 09h jusqu'au 29 à 09h UTC


280844Z 2809/2909 04016G28KT 9999 SCT020
BECMG 2809/2811 SCT040
BECMG 2818/2821 02014KT
PROB30
TEMPO 2821/2907 SCT020
BECMG 2906/2909 03020G30KT



MET'MAP, la Météo Aéronautique d'un coup d'oeil ! - Copyright ORBIFLY Décembre 2007 - Disclaimer

ORBIFLY MET'MAP TEAM :

Programmation & Développement : Alexandra Zaïnal
Sur une idée originale de : Baudouin d'Aumeries
Assistance à la programmation : Marc-Olivier Méhu
Soutien technique & logistique : Manuel Goepfert

Contact : metmap@orbifly.com




SOURCES & CREDITS :

   NOAA